Time;durP1;ratioP1;P1;durP2;ratioP2;P2;SDS_P1;SDS_P2;PMS_P1;PMS_P2;Temp;Humidity;BMP_temperature;BMP_pressure;BME280_temperature;BME280_humidity;BME280_pressure;Samples;Min_cycle;Max_cycle;Signal;HPM_P1;HPM_P2
2022/12/17 13:06:44;;;;;;;59.55;38.78;;;0.60;99.90;;;;;;4928041;29;20054;-83
2022/12/17 13:09:15;;;;;;;56.75;37.78;;;0.70;99.90;;;;;;4905085;29;20142;-84
2022/12/17 13:11:44;;;;;;;55.90;37.33;;;0.70;99.90;;;;;;4934466;29;20043;-83
2022/12/17 13:14:20;;;;;;;61.25;38.08;;;0.70;99.90;;;;;;4922552;29;20051;-83
2022/12/17 13:16:46;;;;;;;60.72;39.88;;;0.70;99.90;;;;;;4914159;29;20054;-84
2022/12/17 13:19:20;;;;;;;62.38;39.63;;;0.60;99.90;;;;;;4913165;29;20047;-83
2022/12/17 13:21:46;;;;;;;66.28;39.75;;;0.60;99.90;;;;;;4917908;29;20050;-83
2022/12/17 13:24:22;;;;;;;58.53;38.83;;;0.70;99.90;;;;;;4931616;29;20426;-83
2022/12/17 13:26:48;;;;;;;61.05;37.72;;;0.70;99.90;;;;;;4920087;29;20035;-83
2022/12/17 13:29:31;;;;;;;57.58;36.75;;;0.60;99.90;;;;;;4934827;29;20402;-83
2022/12/17 13:32:19;;;;;;;57.42;36.90;;;0.60;99.90;;;;;;4923922;29;20040;-83
2022/12/17 13:35:11;;;;;;;56.10;36.80;;;0.60;99.90;;;;;;4930614;29;20103;-83
2022/12/17 13:38:21;;;;;;;59.92;38.05;;;0.60;99.90;;;;;;4929919;29;20164;-83
2022/12/17 13:41:05;;;;;;;63.03;38.47;;;0.60;99.90;;;;;;4884351;29;20099;-83
2022/12/17 13:43:38;;;;;;;58.20;36.70;;;0.60;99.90;;;;;;4926985;29;20050;-83
2022/12/17 13:46:04;;;;;;;56.80;36.13;;;0.60;99.90;;;;;;4933448;29;20043;-83
2022/12/17 13:48:29;;;;;;;57.30;37.72;;;0.60;99.90;;;;;;4919127;29;20048;-83
2022/12/17 13:51:04;;;;;;;61.15;39.30;;;0.60;99.90;;;;;;4919027;29;20043;-84
2022/12/17 13:53:34;;;;;;;58.55;36.58;;;0.50;99.90;;;;;;4929064;29;20038;-83
2022/12/17 13:56:01;;;;;;;58.53;36.25;;;0.50;99.90;;;;;;4934364;29;20046;-83
2022/12/17 13:58:29;;;;;;;61.67;38.58;;;0.50;99.90;;;;;;4918637;29;20768;-83
2022/12/17 14:01:14;;;;;;;57.45;37.25;;;0.50;99.90;;;;;;4916664;29;20075;-84
2022/12/17 14:03:48;;;;;;;59.90;36.97;;;0.40;99.90;;;;;;4917294;29;20046;-85
2022/12/17 14:06:14;;;;;;;54.80;36.97;;;0.30;99.90;;;;;;4919210;29;20091;-83
2022/12/17 14:08:40;;;;;;;55.53;34.70;;;0.40;99.90;;;;;;4920024;29;20032;-84
2022/12/17 14:13:52;;;;;;;63.30;36.88;;;0.30;99.90;;;;;;4907680;29;20146;-82
2022/12/17 14:16:19;;;;;;;60.35;36.90;;;0.10;99.90;;;;;;4928113;29;20039;-84
2022/12/17 14:18:51;;;;;;;60.38;37.83;;;0.10;99.90;;;;;;4933175;29;20126;-82
2022/12/17 14:21:18;;;;;;;60.53;37.63;;;0.10;99.90;;;;;;4917834;29;20071;-83
2022/12/17 14:23:45;;;;;;;58.15;36.67;;;0.10;99.90;;;;;;4929043;29;20032;-83
2022/12/17 14:26:12;;;;;;;59.78;37.30;;;0.20;99.90;;;;;;4926974;29;20486;-84
2022/12/17 14:29:10;;;;;;;62.42;35.72;;;0.00;99.90;;;;;;4914898;29;20036;-82
2022/12/17 14:31:36;;;;;;;66.68;37.22;;;0.00;99.90;;;;;;4917193;29;20084;-82
2022/12/17 14:34:09;;;;;;;56.58;35.72;;;0.00;99.90;;;;;;4927932;29;20052;-82
2022/12/17 14:36:37;;;;;;;69.50;38.25;;;-0.10;99.90;;;;;;4929466;29;20063;-82
2022/12/17 14:39:24;;;;;;;58.53;35.72;;;-0.10;99.90;;;;;;4933406;29;21335;-85
2022/12/17 14:44:41;;;;;;;61.88;36.15;;;-0.20;99.90;;;;;;4931057;29;20047;-82
2022/12/17 14:47:21;;;;;;;64.18;37.97;;;-0.20;99.90;;;;;;4934576;29;20632;-83
2022/12/17 14:50:03;;;;;;;63.53;37.72;;;-0.20;99.90;;;;;;4928649;29;20040;-82
2022/12/17 14:52:46;;;;;;;67.32;37.05;;;-0.30;99.90;;;;;;4929200;29;20039;-83
2022/12/17 14:55:34;;;;;;;62.35;34.65;;;-0.30;99.90;;;;;;4931171;29;20127;-83
2022/12/17 14:58:12;;;;;;;59.70;35.05;;;-0.40;99.90;;;;;;4934910;29;20075;-83
2022/12/17 15:00:40;;;;;;;65.00;34.88;;;-0.40;99.90;;;;;;4929548;29;20040;-83
2022/12/17 15:03:11;;;;;;;61.72;34.15;;;-0.60;99.90;;;;;;4917868;29;20043;-83
2022/12/17 15:05:37;;;;;;;59.40;35.35;;;-0.50;99.90;;;;;;4933053;29;20066;-82
2022/12/17 15:08:04;;;;;;;62.15;36.40;;;-0.50;99.90;;;;;;4913710;29;20040;-86
2022/12/17 15:10:29;;;;;;;66.15;37.33;;;-0.50;99.90;;;;;;4913425;29;20491;-83
2022/12/17 15:12:56;;;;;;;62.08;36.13;;;-0.30;99.90;;;;;;4928903;29;20053;-82
2022/12/17 15:15:21;;;;;;;69.15;38.10;;;-0.60;99.90;;;;;;4920329;29;20046;-82
2022/12/17 15:17:47;;;;;;;70.20;37.92;;;-0.60;99.90;;;;;;4914325;29;20039;-83
2022/12/17 15:20:21;;;;;;;67.60;36.97;;;-0.60;99.90;;;;;;4933939;29;20044;-83
2022/12/17 15:22:46;;;;;;;69.00;37.33;;;-0.60;99.90;;;;;;4905295;29;20467;-85
2022/12/17 15:25:14;;;;;;;67.82;36.08;;;-0.60;99.90;;;;;;4918401;29;20071;-82
2022/12/17 15:27:40;;;;;;;68.45;36.78;;;-0.60;99.90;;;;;;4919433;29;20042;-83
2022/12/17 15:30:08;;;;;;;71.63;38.33;;;-0.70;99.90;;;;;;4919074;29;20406;-83
2022/12/17 15:32:33;;;;;;;66.75;35.42;;;-0.70;99.90;;;;;;4919327;29;20040;-83
2022/12/17 15:34:59;;;;;;;68.32;36.55;;;-0.70;99.90;;;;;;4935882;29;20091;-83
2022/12/17 15:37:24;;;;;;;70.78;38.22;;;-0.70;99.90;;;;;;4916260;29;20380;-82
2022/12/17 15:39:50;;;;;;;75.97;39.63;;;-0.70;99.90;;;;;;4931721;29;20522;-83
2022/12/17 15:44:59;;;;;;;77.35;39.60;;;-0.80;99.90;;;;;;4934252;29;20533;-83
2022/12/17 15:47:25;;;;;;;75.65;38.05;;;-0.70;99.90;;;;;;4918670;29;20067;-86
2022/12/17 15:49:50;;;;;;;76.60;36.88;;;-0.80;99.90;;;;;;4935009;29;20040;-83
2022/12/17 15:52:16;;;;;;;72.47;37.17;;;-0.80;99.90;;;;;;4921554;29;20044;-83
2022/12/17 15:54:42;;;;;;;71.88;37.47;;;-0.50;99.90;;;;;;4921429;29;20561;-83
2022/12/17 15:57:07;;;;;;;71.28;38.13;;;-0.80;99.90;;;;;;4920839;29;20055;-83
2022/12/17 15:59:33;;;;;;;80.75;38.97;;;-0.70;99.90;;;;;;4921739;29;20046;-83
2022/12/17 16:01:58;;;;;;;79.15;37.67;;;-0.70;99.90;;;;;;4921570;29;20035;-83
2022/12/17 16:04:24;;;;;;;80.43;38.70;;;-0.80;99.90;;;;;;4936490;29;20036;-85
2022/12/17 16:06:49;;;;;;;80.28;40.28;;;-0.70;99.90;;;;;;4921451;29;20035;-84
2022/12/17 16:09:15;;;;;;;87.63;40.33;;;-0.80;99.90;;;;;;4932908;29;20036;-83
2022/12/17 16:11:40;;;;;;;77.93;39.20;;;-0.80;99.90;;;;;;4917152;29;20038;-83
2022/12/17 16:14:06;;;;;;;84.20;39.90;;;-0.70;99.90;;;;;;4918535;29;20040;-85
2022/12/17 16:16:32;;;;;;;82.18;39.08;;;-0.90;99.90;;;;;;4929922;29;20070;-83
2022/12/17 16:18:57;;;;;;;86.45;39.25;;;-0.90;99.90;;;;;;4932571;29;20495;-83
2022/12/17 16:21:23;;;;;;;80.78;38.15;;;-0.90;99.90;;;;;;4942358;29;20048;-84
2022/12/17 16:23:48;;;;;;;81.78;39.08;;;-0.90;99.90;;;;;;4926215;29;20107;-84
2022/12/17 16:26:14;;;;;;;88.68;40.25;;;-0.70;99.90;;;;;;4930212;29;20027;-84
2022/12/17 16:28:41;;;;;;;85.10;38.88;;;-0.90;99.90;;;;;;4928414;29;20044;-84
2022/12/17 16:31:10;;;;;;;85.75;39.97;;;-0.90;99.90;;;;;;4916980;29;20074;-85
2022/12/17 16:33:38;;;;;;;81.10;39.58;;;-0.60;99.90;;;;;;4932273;29;20036;-84
2022/12/17 16:36:05;;;;;;;85.63;39.92;;;-0.90;99.90;;;;;;4932882;29;20506;-85
2022/12/17 16:38:32;;;;;;;85.80;39.53;;;-1.00;99.90;;;;;;4915489;29;20495;-84
2022/12/17 16:41:01;;;;;;;88.90;39.70;;;-1.00;99.90;;;;;;4931813;29;20059;-84
2022/12/17 16:43:32;;;;;;;92.25;41.08;;;-0.90;99.90;;;;;;4918760;29;20545;-85
2022/12/17 16:45:57;;;;;;;83.68;38.28;;;-0.90;99.90;;;;;;4931889;29;20048;-85
2022/12/17 16:48:23;;;;;;;91.93;41.70;;;-1.00;99.90;;;;;;4919871;29;20062;-84
2022/12/17 16:50:49;;;;;;;91.25;39.17;;;-1.00;99.90;;;;;;4919108;29;20040;-85
2022/12/17 16:53:16;;;;;;;80.50;36.60;;;-1.00;99.90;;;;;;4916444;29;20044;-84
2022/12/17 16:55:47;;;;;;;95.93;41.50;;;-1.00;99.90;;;;;;4926952;29;22334;-84
2022/12/17 16:58:16;;;;;;;87.35;39.80;;;-1.00;99.90;;;;;;4923878;29;20402;-84
2022/12/17 17:00:42;;;;;;;88.35;40.17;;;-1.00;99.90;;;;;;4914850;29;20515;-85
2022/12/17 17:03:08;;;;;;;81.15;37.90;;;-1.00;99.90;;;;;;4929231;29;20114;-85
2022/12/17 17:05:36;;;;;;;94.82;40.17;;;-1.10;99.90;;;;;;4917900;29;20035;-84
2022/12/17 17:08:03;;;;;;;79.22;37.20;;;-1.00;99.90;;;;;;4933037;29;20537;-85
2022/12/17 17:10:28;;;;;;;76.45;35.10;;;-1.10;99.90;;;;;;4913717;29;20035;-84
2022/12/17 17:12:55;;;;;;;80.82;36.45;;;-1.10;99.90;;;;;;4914721;29;20503;-82
2022/12/17 17:15:21;;;;;;;76.38;36.22;;;-1.00;99.90;;;;;;4917581;29;20457;-85
2022/12/17 17:17:47;;;;;;;79.88;35.15;;;-1.30;99.90;;;;;;4915811;29;20074;-84
2022/12/17 17:20:13;;;;;;;75.43;34.28;;;-1.30;99.90;;;;;;4938482;29;20067;-84
2022/12/17 17:22:38;;;;;;;75.15;35.40;;;-1.30;99.90;;;;;;4930430;29;20032;-85
2022/12/17 17:25:04;;;;;;;80.45;37.30;;;-1.30;99.90;;;;;;4932931;29;20051;-84
2022/12/17 17:27:30;;;;;;;80.07;36.97;;;-1.30;99.90;;;;;;4915458;29;20038;-83
2022/12/17 17:29:57;;;;;;;87.55;37.72;;;-1.30;99.90;;;;;;4917359;29;20409;-83
2022/12/17 17:32:23;;;;;;;86.82;38.83;;;-1.30;99.90;;;;;;4928919;29;20052;-84
2022/12/17 17:34:49;;;;;;;78.53;35.78;;;-1.40;99.90;;;;;;4921818;29;20047;-84
2022/12/17 17:37:14;;;;;;;92.30;37.40;;;-1.30;99.90;;;;;;4932078;29;20546;-83
2022/12/17 17:39:40;;;;;;;80.47;37.50;;;-1.20;99.90;;;;;;4931764;29;20067;-84
2022/12/17 17:42:06;;;;;;;86.70;37.70;;;-1.30;99.90;;;;;;4916856;29;20119;-83
2022/12/17 17:44:31;;;;;;;87.80;37.70;;;-1.20;99.90;;;;;;4925297;29;20039;-85
2022/12/17 17:46:57;;;;;;;88.70;38.08;;;-1.40;99.90;;;;;;4924846;29;20422;-83
2022/12/17 17:49:22;;;;;;;85.60;34.33;;;-1.50;99.90;;;;;;4904818;29;20499;-83
2022/12/17 17:51:48;;;;;;;89.03;37.65;;;-1.50;99.90;;;;;;4916567;29;20039;-85
2022/12/17 17:54:14;;;;;;;82.57;37.17;;;-1.50;99.90;;;;;;4934177;29;20099;-84
2022/12/17 17:56:41;;;;;;;85.88;35.25;;;-1.40;99.90;;;;;;4917256;29;20036;-83
2022/12/17 17:59:13;;;;;;;82.50;36.33;;;-1.50;99.90;;;;;;4907148;29;20051;-84
2022/12/17 18:01:44;;;;;;;92.45;37.40;;;-1.40;99.90;;;;;;4916263;29;20107;-83
2022/12/17 18:04:15;;;;;;;81.80;34.90;;;-1.40;99.90;;;;;;4930355;29;20124;-83
2022/12/17 18:06:43;;;;;;;79.85;34.80;;;-1.60;99.90;;;;;;4928709;29;20398;-84
2022/12/17 18:09:09;;;;;;;81.10;36.35;;;-1.60;99.90;;;;;;4915217;29;20455;-84
2022/12/17 18:11:36;;;;;;;78.57;34.22;;;-1.60;99.90;;;;;;4928893;29;20047;-84
2022/12/17 18:14:04;;;;;;;90.45;39.20;;;-1.70;99.90;;;;;;4926456;29;20047;-83
2022/12/17 18:16:41;;;;;;;82.72;35.65;;;-1.60;99.90;;;;;;4922153;29;20087;-84
2022/12/17 18:19:27;;;;;;;85.68;35.38;;;-1.70;99.90;;;;;;4929185;29;20043;-84
2022/12/17 18:21:52;;;;;;;87.15;36.58;;;-1.60;99.90;;;;;;4912602;29;20072;-85
2022/12/17 18:24:24;;;;;;;86.82;37.65;;;-1.70;99.90;;;;;;4929503;29;20507;-83
2022/12/17 18:26:51;;;;;;;89.93;38.47;;;-1.60;99.90;;;;;;4919500;29;20045;-83
2022/12/17 18:29:23;;;;;;;81.85;37.03;;;-1.60;99.90;;;;;;4915988;29;20047;-83
2022/12/17 18:31:49;;;;;;;93.85;38.92;;;-1.60;99.90;;;;;;4933729;29;20683;-84
2022/12/17 18:34:18;;;;;;;103.85;40.92;;;-1.60;99.90;;;;;;4927880;29;20047;-84
2022/12/17 18:36:45;;;;;;;83.43;36.35;;;-1.60;99.90;;;;;;4923905;29;20040;-83
2022/12/17 18:39:16;;;;;;;90.40;38.53;;;-1.60;99.90;;;;;;4928805;29;20096;-84
2022/12/17 18:44:28;;;;;;;93.22;39.63;;;-1.10;99.90;;;;;;4932760;29;20046;-84
2022/12/17 18:46:54;;;;;;;97.00;40.47;;;-1.50;99.90;;;;;;4914267;29;20040;-83
2022/12/17 18:49:21;;;;;;;91.25;40.53;;;-1.60;99.90;;;;;;4923597;29;20054;-85
2022/12/17 18:51:48;;;;;;;86.13;43.08;;;-1.60;99.90;;;;;;4928053;29;20083;-84
2022/12/17 18:54:19;;;;;;;93.03;40.92;;;-1.60;99.90;;;;;;4920898;29;20443;-85
2022/12/17 18:56:45;;;;;;;92.32;41.55;;;-1.60;99.90;;;;;;4921834;29;20039;-84
2022/12/17 18:59:21;;;;;;;88.03;40.70;;;-1.70;99.90;;;;;;4929505;29;20071;-84
2022/12/17 19:01:48;;;;;;;81.85;38.53;;;-1.70;99.90;;;;;;4914833;29;20110;-84
2022/12/17 19:04:17;;;;;;;80.75;40.65;;;-1.60;99.90;;;;;;4914588;29;20471;-84
2022/12/17 19:06:43;;;;;;;86.47;41.88;;;-1.70;99.90;;;;;;4909993;29;20090;-84
2022/12/17 19:09:18;;;;;;;88.85;41.58;;;-1.70;99.90;;;;;;4929955;29;20094;-84
2022/12/17 19:11:44;;;;;;;86.85;42.80;;;-1.60;99.90;;;;;;4929417;29;20098;-84
2022/12/17 19:14:09;;;;;;;89.15;44.45;;;-1.70;99.90;;;;;;4930121;29;20122;-85
2022/12/17 19:16:35;;;;;;;92.53;43.83;;;-1.60;99.90;;;;;;4928303;29;20807;-84
2022/12/17 19:19:03;;;;;;;92.13;43.67;;;-1.70;99.90;;;;;;4928868;29;20040;-85
2022/12/17 19:21:30;;;;;;;86.45;42.78;;;-1.30;99.90;;;;;;4931518;29;20065;-84
2022/12/17 19:23:58;;;;;;;87.57;44.08;;;-1.70;99.90;;;;;;4915080;29;20036;-84
2022/12/17 19:26:25;;;;;;;86.03;42.20;;;-1.60;99.90;;;;;;4933778;29;20129;-84
2022/12/17 19:28:54;;;;;;;86.32;43.80;;;-1.80;99.90;;;;;;4919118;29;20031;-85
2022/12/17 19:31:22;;;;;;;80.38;42.65;;;-1.80;99.90;;;;;;4929544;29;20043;-84
2022/12/17 19:33:48;;;;;;;80.63;43.28;;;-1.80;99.90;;;;;;4938240;29;20075;-85
2022/12/17 19:36:17;;;;;;;79.10;44.90;;;-1.80;99.90;;;;;;4935167;29;20099;-85
2022/12/17 19:38:44;;;;;;;86.28;43.60;;;-1.90;99.90;;;;;;4934319;29;20040;-85
2022/12/17 19:41:15;;;;;;;82.03;44.42;;;-0.80;99.90;;;;;;4934620;29;20141;-85
2022/12/17 19:43:42;;;;;;;74.88;43.00;;;-1.80;99.90;;;;;;4933517;29;20036;-84
2022/12/17 19:46:13;;;;;;;75.97;43.70;;;-1.90;99.90;;;;;;4932888;29;20123;-85
2022/12/17 19:48:39;;;;;;;85.75;43.85;;;-1.90;99.90;;;;;;4930098;29;20036;-84
2022/12/17 19:51:07;;;;;;;80.95;42.47;;;-1.90;99.90;;;;;;4925973;29;20099;-83
2022/12/17 19:53:36;;;;;;;74.75;41.83;;;-1.90;99.90;;;;;;4935690;29;20118;-84
2022/12/17 19:56:10;;;;;;;78.28;44.17;;;-2.00;99.90;;;;;;4932371;29;20144;-85
2022/12/17 19:58:36;;;;;;;78.38;42.10;;;-2.00;99.90;;;;;;4931352;29;20047;-84
2022/12/17 20:01:13;;;;;;;82.32;42.90;;;-2.00;99.90;;;;;;4934143;29;20634;-83
2022/12/17 20:03:55;;;;;;;76.88;43.22;;;-2.10;99.90;;;;;;4916130;29;20031;-84
2022/12/17 20:06:24;;;;;;;79.60;42.75;;;-2.00;99.90;;;;;;4919774;29;20114;-85
2022/12/17 20:08:49;;;;;;;84.95;43.70;;;-1.70;99.90;;;;;;4933661;29;20127;-85
2022/12/17 20:11:34;;;;;;;80.88;43.22;;;-2.00;99.90;;;;;;4929644;29;20172;-85
2022/12/17 20:14:04;;;;;;;76.03;43.80;;;-2.10;99.90;;;;;;4914294;29;20051;-84
2022/12/17 20:16:33;;;;;;;78.75;43.10;;;-2.10;99.90;;;;;;4935730;29;20035;-84
2022/12/17 20:18:59;;;;;;;82.70;44.03;;;-2.00;99.90;;;;;;4932275;29;20538;-84
2022/12/17 20:21:25;;;;;;;82.35;43.47;;;-2.10;99.90;;;;;;4935379;29;21558;-84
2022/12/17 20:23:51;;;;;;;83.35;44.03;;;-2.10;99.90;;;;;;4919901;29;20042;-85
2022/12/17 20:26:17;;;;;;;87.45;44.60;;;-2.10;99.90;;;;;;4926346;29;20457;-84
2022/12/17 20:28:43;;;;;;;92.78;45.92;;;-2.10;99.90;;;;;;4931312;29;20032;-84
2022/12/17 20:31:12;;;;;;;90.95;45.80;;;-2.10;99.90;;;;;;4914584;29;20051;-84
2022/12/17 20:33:38;;;;;;;94.43;47.80;;;-2.10;99.90;;;;;;4919135;29;20134;-85
2022/12/17 20:36:05;;;;;;;91.50;47.33;;;-2.10;99.90;;;;;;4934739;29;20054;-85
2022/12/17 20:38:31;;;;;;;94.80;47.83;;;-2.10;99.90;;;;;;4934833;29;20458;-84
2022/12/17 20:40:57;;;;;;;99.43;48.42;;;-1.80;99.90;;;;;;4932651;29;20043;-84
2022/12/17 20:43:22;;;;;;;102.18;47.30;;;-1.60;99.90;;;;;;4918798;29;20047;-84
2022/12/17 20:45:49;;;;;;;98.20;46.85;;;-2.10;99.90;;;;;;4930030;29;20521;-84
2022/12/17 20:48:15;;;;;;;98.03;46.40;;;-2.00;99.90;;;;;;4912547;29;20465;-84
2022/12/17 20:50:41;;;;;;;92.90;45.78;;;-2.10;99.90;;;;;;4931801;29;20126;-83
2022/12/17 20:53:07;;;;;;;96.07;47.17;;;-2.10;99.90;;;;;;4933521;29;20105;-84
2022/12/17 20:55:33;;;;;;;91.72;43.67;;;-2.10;99.90;;;;;;4929912;29;20035;-85
2022/12/17 20:57:58;;;;;;;91.32;42.58;;;-2.10;99.90;;;;;;4929102;29;20460;-84
2022/12/17 21:00:24;;;;;;;89.20;42.67;;;-1.80;99.90;;;;;;4927199;29;20039;-84
2022/12/17 21:02:49;;;;;;;92.95;43.90;;;-1.60;99.90;;;;;;4915826;29;20090;-85
2022/12/17 21:05:16;;;;;;;97.15;42.90;;;-2.20;99.90;;;;;;4917324;29;20518;-84
2022/12/17 21:07:46;;;;;;;90.15;42.75;;;-2.30;99.90;;;;;;4931133;29;20036;-85
2022/12/17 21:10:14;;;;;;;90.75;42.10;;;-2.00;99.90;;;;;;4932941;29;20046;-85
2022/12/17 21:15:50;;;;;;;84.63;39.17;;;-2.30;99.90;;;;;;4933015;29;20075;-84
2022/12/17 21:18:16;;;;;;;89.28;41.10;;;-2.40;99.90;;;;;;4926907;29;20404;-84
2022/12/17 21:20:42;;;;;;;93.65;43.33;;;-2.10;99.90;;;;;;4931256;29;20044;-84
2022/12/17 21:23:07;;;;;;;84.43;41.17;;;-2.40;99.90;;;;;;4923817;29;20044;-85
2022/12/17 21:25:33;;;;;;;94.05;42.55;;;-2.40;99.90;;;;;;4916139;29;20032;-84
2022/12/17 21:27:59;;;;;;;95.40;43.22;;;-2.50;99.90;;;;;;4928378;29;20147;-85
2022/12/17 21:30:25;;;;;;;80.15;38.53;;;-2.40;99.90;;;;;;4933505;29;20119;-84
2022/12/17 21:32:50;;;;;;;85.95;40.83;;;-2.50;99.90;;;;;;4928823;29;20146;-85
2022/12/17 21:35:16;;;;;;;83.85;40.55;;;-2.10;99.90;;;;;;4918578;29;20051;-84
2022/12/17 21:37:42;;;;;;;94.93;42.65;;;-2.50;99.90;;;;;;4918706;29;20042;-84
2022/12/17 21:40:08;;;;;;;99.38;42.08;;;-2.50;99.90;;;;;;4913160;29;20123;-84
2022/12/17 21:45:17;;;;;;;99.32;44.20;;;-2.40;99.90;;;;;;4931361;29;20788;-84
2022/12/17 21:47:43;;;;;;;101.88;44.88;;;-2.50;99.90;;;;;;4932452;29;20104;-86
2022/12/17 21:50:08;;;;;;;96.07;43.38;;;-2.40;99.90;;;;;;4917910;29;20059;-83
2022/12/17 21:52:34;;;;;;;93.07;43.28;;;-2.50;99.90;;;;;;4927278;29;20039;-87
2022/12/17 21:55:00;;;;;;;94.65;41.40;;;-2.50;99.90;;;;;;4909205;29;20073;-86
2022/12/17 21:57:25;;;;;;;93.30;41.20;;;-2.50;99.90;;;;;;4919050;29;20106;-86
2022/12/17 21:59:51;;;;;;;100.88;45.05;;;-2.50;99.90;;;;;;4918450;29;20051;-85
2022/12/17 22:02:18;;;;;;;99.70;44.58;;;-2.50;99.90;;;;;;4915796;29;20047;-86
2022/12/17 22:04:50;;;;;;;94.10;42.25;;;-2.50;99.90;;;;;;4916114;29;20047;-86
2022/12/17 22:07:16;;;;;;;101.68;43.08;;;-2.40;99.90;;;;;;4913207;29;20035;-84
2022/12/17 22:09:42;;;;;;;119.88;46.08;;;-2.50;99.90;;;;;;4927939;29;20103;-83
2022/12/17 22:14:54;;;;;;;107.15;44.55;;;-2.50;99.90;;;;;;4938566;28;20055;-87
2022/12/17 22:17:20;;;;;;;107.22;43.38;;;-2.60;99.90;;;;;;4919840;29;20044;-86
2022/12/17 22:19:50;;;;;;;99.78;40.42;;;-2.20;99.90;;;;;;4925395;29;20043;-88
2022/12/17 22:22:17;;;;;;;99.35;41.40;;;-2.60;99.90;;;;;;4915205;29;20076;-84
2022/12/17 22:24:43;;;;;;;104.47;41.45;;;-2.60;99.90;;;;;;4912051;29;20861;-83
2022/12/17 22:27:08;;;;;;;96.20;39.30;;;-2.60;99.90;;;;;;4924376;29;20047;-83
2022/12/17 22:35:02;;;;;;;102.70;41.10;;;-2.70;99.90;;;;;;4942450;28;20067;-83
2022/12/17 22:37:28;;;;;;;105.70;40.53;;;-2.70;99.90;;;;;;4923079;29;20410;-83
2022/12/17 22:39:54;;;;;;;106.53;41.65;;;-2.70;99.90;;;;;;4930132;29;20486;-83
2022/12/17 22:45:07;;;;;;;103.30;39.30;;;-2.70;99.90;;;;;;4931135;29;20082;-83
2022/12/17 22:47:32;;;;;;;98.18;39.65;;;-2.70;99.90;;;;;;4923722;29;20064;-83
2022/12/17 22:49:58;;;;;;;103.55;40.67;;;-2.70;99.90;;;;;;4915182;29;20047;-82
2022/12/17 22:52:23;;;;;;;98.85;40.75;;;-2.70;99.90;;;;;;4921810;29;20051;-83
2022/12/17 22:54:49;;;;;;;108.70;41.80;;;-2.70;99.90;;;;;;4921758;29;20209;-83
2022/12/17 22:57:14;;;;;;;108.90;42.65;;;-2.40;99.90;;;;;;4913104;29;20040;-83
2022/12/17 22:59:40;;;;;;;108.97;39.85;;;-2.70;99.90;;;;;;4912924;29;20109;-83
2022/12/17 23:02:07;;;;;;;99.78;39.53;;;-2.70;99.90;;;;;;4926330;29;20067;-84
2022/12/17 23:04:33;;;;;;;104.85;39.90;;;-2.70;99.90;;;;;;4923651;29;20499;-82
2022/12/17 23:06:58;;;;;;;110.68;39.45;;;-2.70;99.90;;;;;;4929798;29;20047;-83
2022/12/17 23:09:24;;;;;;;92.22;37.22;;;-2.70;99.90;;;;;;4927637;29;20056;-83
2022/12/17 23:11:49;;;;;;;92.82;36.33;;;-2.60;99.90;;;;;;4927547;29;20050;-83
2022/12/17 23:14:16;;;;;;;96.63;39.58;;;-2.80;99.90;;;;;;4928687;29;20047;-83
2022/12/17 23:16:41;;;;;;;103.70;40.13;;;-2.80;99.90;;;;;;4914784;29;20036;-83
2022/12/17 23:19:08;;;;;;;95.85;39.42;;;-2.80;99.90;;;;;;4917966;29;20068;-83
2022/12/17 23:21:34;;;;;;;103.53;39.88;;;-2.80;99.90;;;;;;4928187;29;20040;-82
2022/12/17 23:23:59;;;;;;;91.75;37.83;;;-2.80;99.90;;;;;;4914140;29;20031;-82
2022/12/17 23:26:34;;;;;;;86.10;35.33;;;-2.80;99.90;;;;;;4927144;29;20040;-83
2022/12/17 23:29:03;;;;;;;92.18;35.70;;;-2.80;99.90;;;;;;4925988;29;20082;-82
2022/12/17 23:31:35;;;;;;;91.35;35.83;;;-2.90;99.90;;;;;;4932846;29;20036;-82
2022/12/17 23:34:01;;;;;;;90.95;35.28;;;-2.80;99.90;;;;;;4929419;29;20106;-83
2022/12/17 23:36:26;;;;;;;86.35;36.80;;;-2.50;99.90;;;;;;4926505;29;20040;-82
2022/12/17 23:38:54;;;;;;;81.85;35.03;;;-2.90;99.90;;;;;;4927538;29;20051;-82
2022/12/17 23:41:23;;;;;;;89.45;36.25;;;-2.90;99.90;;;;;;4929487;29;20048;-83
2022/12/17 23:43:49;;;;;;;86.85;35.78;;;-2.60;99.90;;;;;;4927960;29;20047;-83
2022/12/17 23:46:15;;;;;;;90.68;37.28;;;-2.50;99.90;;;;;;4919699;29;20577;-82
2022/12/17 23:48:43;;;;;;;86.82;36.70;;;-2.50;99.90;;;;;;4916464;29;20118;-83
2022/12/17 23:51:09;;;;;;;91.93;37.90;;;-2.80;99.90;;;;;;4934311;29;20040;-83
2022/12/17 23:53:37;;;;;;;96.95;39.22;;;-2.70;99.90;;;;;;4918453;29;20071;-82
2022/12/17 23:56:07;;;;;;;102.07;39.80;;;-2.90;99.90;;;;;;4936906;29;20054;-82
2022/12/17 23:58:34;;;;;;;102.85;40.63;;;-2.90;99.90;;;;;;4929370;29;20043;-82
